Time;durP1;ratioP1;P1;durP2;ratioP2;P2;SDS_P1;SDS_P2;PMS_P1;PMS_P2;Temp;Humidity;BMP_temperature;BMP_pressure;BME280_temperature;BME280_humidity;BME280_pressure;Samples;Min_cycle;Max_cycle;Signal;HPM_P1;HPM_P2
2021/04/22 00:01:35;;;;;;;16.13;4.73;;;;;;;7.32;50.16;101730.72;6180008;28;20505;-52
2021/04/22 00:04:55;;;;;;;14.20;4.97;;;;;;;7.72;48.93;101727.13;6184839;28;20485;-54
2021/04/22 00:08:15;;;;;;;12.97;4.43;;;;;;;7.53;50.03;101719.88;6180081;28;20217;-55
2021/04/22 00:11:37;;;;;;;17.93;6.00;;;;;;;7.60;49.83;101719.13;6182549;28;20296;-56
2021/04/22 00:14:57;;;;;;;20.13;6.10;;;;;;;7.46;50.11;101716.28;6186120;28;20229;-54
2021/04/22 00:18:19;;;;;;;8.60;3.70;;;;;;;7.54;50.04;101732.88;6182959;28;20325;-50
2021/04/22 00:21:39;;;;;;;9.73;4.07;;;;;;;7.56;50.15;101735.47;6181207;28;20233;-51
2021/04/22 00:24:59;;;;;;;12.17;4.67;;;;;;;7.38;50.48;101742.06;6181592;28;20218;-55
2021/04/22 00:28:20;;;;;;;12.40;3.83;;;;;;;7.41;50.39;101751.63;6172355;28;20321;-51
2021/04/22 00:31:40;;;;;;;12.17;4.40;;;;;;;7.26;50.37;101740.13;6182598;28;20225;-49
2021/04/22 00:35:01;;;;;;;12.70;5.03;;;;;;;7.34;49.86;101742.00;6182657;28;20238;-54
2021/04/22 00:38:21;;;;;;;14.07;5.03;;;;;;;7.24;50.03;101744.41;6185799;28;20237;-53
2021/04/22 00:41:42;;;;;;;7.27;3.83;;;;;;;7.49;49.44;101745.75;6191391;28;20997;-51
2021/04/22 00:45:04;;;;;;;16.97;4.83;;;;;;;7.32;50.18;101746.28;6181114;28;20851;-52
2021/04/22 00:48:26;;;;;;;17.33;4.50;;;;;;;7.36;50.23;101740.31;6184656;28;20229;-52
2021/04/22 00:51:58;;;;;;;16.50;3.97;;;;;;;7.46;50.01;101735.34;6167940;28;20639;-54
2021/04/22 00:55:19;;;;;;;13.23;4.73;;;;;;;7.36;50.13;101737.72;6192135;28;20309;-54
2021/04/22 00:58:39;;;;;;;14.53;4.27;;;;;;;7.33;49.95;101737.63;6180374;28;20253;-51
2021/04/22 01:02:00;;;;;;;15.13;5.07;;;;;;;7.44;49.22;101739.63;6178198;28;20234;-54
2021/04/22 01:05:22;;;;;;;14.17;4.10;;;;;;;7.38;49.04;101739.47;6178713;28;20225;-54
2021/04/22 01:08:43;;;;;;;16.60;5.50;;;;;;;7.38;49.15;101741.19;6182143;28;20316;-51
2021/04/22 01:12:04;;;;;;;9.13;3.97;;;;;;;7.40;48.96;101742.09;6184301;28;20233;-51
2021/04/22 01:15:27;;;;;;;9.33;4.23;;;;;;;7.45;48.81;101743.94;6180670;28;20225;-53
2021/04/22 01:18:48;;;;;;;14.33;5.27;;;;;;;7.35;48.67;101741.13;6183371;28;20254;-50
2021/04/22 01:22:09;;;;;;;14.57;4.00;;;;;;;7.38;48.35;101736.88;6182063;28;20249;-51
2021/04/22 01:25:32;;;;;;;14.40;5.23;;;;;;;7.44;46.95;101741.31;6180655;28;20234;-55
2021/04/22 01:28:54;;;;;;;19.73;5.93;;;;;;;7.35;47.52;101747.22;6182929;28;20238;-53
2021/04/22 01:32:14;;;;;;;13.90;5.87;;;;;;;7.51;47.71;101753.56;6176824;28;20230;-50
2021/04/22 01:35:36;;;;;;;10.40;3.53;;;;;;;7.33;48.21;101748.00;6184145;28;20237;-54
2021/04/22 01:38:58;;;;;;;13.53;5.03;;;;;;;7.40;48.42;101745.56;6181158;28;20237;-51
2021/04/22 01:42:18;;;;;;;12.30;4.07;;;;;;;7.59;47.90;101756.28;6182863;28;20309;-55
2021/04/22 01:45:39;;;;;;;13.37;4.00;;;;;;;7.40;48.48;101750.75;6182353;28;20241;-53
2021/04/22 01:49:00;;;;;;;10.47;3.50;;;;;;;7.56;48.29;101751.03;6180413;28;20226;-48
2021/04/22 01:52:20;;;;;;;21.97;7.33;;;;;;;7.28;48.37;101746.19;6183491;28;20248;-51
2021/04/22 01:55:44;;;;;;;9.70;3.57;;;;;;;7.29;48.19;101752.28;6180249;28;20743;-53
2021/04/22 01:59:05;;;;;;;9.63;4.37;;;;;;;7.42;48.06;101754.25;6179023;28;20276;-49
2021/04/22 02:02:25;;;;;;;17.13;4.40;;;;;;;7.47;47.91;101757.81;6183736;28;20344;-50
2021/04/22 02:05:46;;;;;;;15.90;5.00;;;;;;;7.70;47.66;101754.75;6174369;28;20243;-52
2021/04/22 02:09:06;;;;;;;14.77;4.80;;;;;;;7.58;48.19;101752.81;6183756;28;20238;-56
2021/04/22 02:12:27;;;;;;;16.73;5.43;;;;;;;7.65;48.29;101752.06;6182899;28;20507;-52
2021/04/22 02:15:50;;;;;;;18.87;5.30;;;;;;;7.59;48.18;101756.28;6194767;28;20225;-53
2021/04/22 02:19:23;;;;;;;14.37;4.40;;;;;;;7.78;47.93;101752.31;6182460;28;20237;-55
2021/04/22 02:22:44;;;;;;;15.77;4.17;;;;;;;7.92;47.08;101749.94;6182152;28;20218;-54
2021/04/22 02:26:05;;;;;;;12.23;4.53;;;;;;;7.88;47.18;101754.19;6184651;28;20233;-55
2021/04/22 02:29:26;;;;;;;11.97;3.80;;;;;;;7.84;46.92;101762.78;6177913;28;20234;-54
2021/04/22 02:32:48;;;;;;;12.27;4.10;;;;;;;7.99;46.76;101763.03;6174635;28;20225;-48
2021/04/22 02:36:08;;;;;;;16.17;4.67;;;;;;;7.85;46.39;101756.72;6183490;28;21163;-55
2021/04/22 02:39:29;;;;;;;13.53;4.13;;;;;;;7.85;45.70;101754.13;6186150;28;20526;-59
2021/04/22 02:42:51;;;;;;;11.67;3.47;;;;;;;7.89;45.26;101750.78;6189337;28;20257;-55
2021/04/22 02:46:12;;;;;;;12.20;3.83;;;;;;;7.95;45.08;101744.78;6184197;28;20226;-53
2021/04/22 02:49:33;;;;;;;13.97;3.73;;;;;;;7.89;44.45;101755.97;6187039;28;20233;-52
2021/04/22 02:52:54;;;;;;;12.70;4.03;;;;;;;7.65;44.88;101757.25;6182831;28;20565;-55
2021/04/22 02:56:14;;;;;;;12.70;3.93;;;;;;;7.62;45.23;101756.34;6179180;28;20529;-52
2021/04/22 02:59:35;;;;;;;11.43;3.47;;;;;;;7.68;45.29;101757.31;6187663;28;20233;-50
2021/04/22 03:02:56;;;;;;;12.13;3.67;;;;;;;7.63;45.87;101751.16;6184906;28;20646;-53
2021/04/22 03:06:16;;;;;;;11.10;3.70;;;;;;;7.78;45.49;101747.13;6189806;28;20226;-52
2021/04/22 03:09:37;;;;;;;11.90;4.20;;;;;;;7.89;45.64;101759.41;6186400;28;20283;-52
2021/04/22 03:12:58;;;;;;;15.83;4.27;;;;;;;8.01;46.04;101750.09;6174853;28;20253;-54
2021/04/22 03:16:19;;;;;;;9.70;3.07;;;;;;;7.93;46.44;101762.94;6176583;28;20263;-53
2021/04/22 03:19:40;;;;;;;9.73;3.40;;;;;;;7.89;46.78;101755.97;6185515;28;20238;-51
2021/04/22 03:23:01;;;;;;;15.40;5.47;;;;;;;7.85;46.83;101747.25;6184344;28;20237;-55
2021/04/22 03:26:21;;;;;;;12.23;3.87;;;;;;;7.65;47.06;101749.47;6176223;28;20728;-53
2021/04/22 03:29:41;;;;;;;14.53;3.63;;;;;;;7.82;46.59;101754.97;6186528;28;20324;-50
2021/04/22 03:33:03;;;;;;;15.50;3.80;;;;;;;7.86;46.01;101755.91;6181477;28;20237;-51
2021/04/22 03:36:24;;;;;;;13.77;4.33;;;;;;;7.85;46.20;101747.25;6189457;28;20611;-52
2021/04/22 03:39:44;;;;;;;7.50;3.00;;;;;;;7.88;46.22;101759.38;6180545;28;20329;-54
2021/04/22 03:43:04;;;;;;;21.60;4.37;;;;;;;7.76;46.37;101748.81;6184414;28;20280;-51
2021/04/22 03:46:25;;;;;;;13.30;4.63;;;;;;;7.85;46.79;101747.25;6185287;28;20320;-52
2021/04/22 03:49:46;;;;;;;14.17;4.43;;;;;;;8.04;46.41;101760.50;6182831;28;20225;-52
2021/04/22 03:53:07;;;;;;;11.77;4.37;;;;;;;8.22;46.45;101749.53;6180811;28;20238;-53
2021/04/22 03:56:27;;;;;;;13.10;3.67;;;;;;;8.02;47.34;101760.47;6183664;28;20241;-52
2021/04/22 03:59:48;;;;;;;17.90;4.07;;;;;;;7.90;48.13;101760.28;6181525;28;20234;-55
2021/04/22 04:03:08;;;;;;;13.63;5.07;;;;;;;7.96;48.97;101768.16;6185073;28;20246;-53
2021/04/22 04:06:31;;;;;;;13.67;4.20;;;;;;;7.92;50.87;101762.91;6185752;28;20233;-53
2021/04/22 04:09:52;;;;;;;13.57;4.80;;;;;;;7.95;51.01;101766.44;6182930;28;20230;-54
2021/04/22 04:13:12;;;;;;;10.13;4.40;;;;;;;8.15;51.12;101774.53;6185217;28;20241;-54
2021/04/22 04:16:33;;;;;;;10.43;3.90;;;;;;;8.02;50.23;101768.25;6181605;28;20805;-51
2021/04/22 04:19:54;;;;;;;12.83;5.07;;;;;;;8.15;49.80;101758.97;6182704;28;20229;-50
2021/04/22 04:23:15;;;;;;;16.97;3.83;;;;;;;7.92;49.81;101766.38;6180596;28;20230;-51
2021/04/22 04:26:36;;;;;;;11.17;3.83;;;;;;;7.99;49.44;101772.56;6180495;28;20234;-52
2021/04/22 04:29:57;;;;;;;12.67;4.77;;;;;;;8.12;49.44;101769.28;6182524;28;20686;-54
2021/04/22 04:33:17;;;;;;;13.27;4.07;;;;;;;7.99;48.94;101782.94;6182914;28;20311;-53
2021/04/22 04:36:43;;;;;;;11.93;3.77;;;;;;;7.96;49.36;101778.53;6180144;28;20229;-52
2021/04/22 04:40:05;;;;;;;19.77;4.03;;;;;;;7.92;50.38;101781.06;6182677;28;20261;-54
2021/04/22 04:43:26;;;;;;;13.50;4.70;;;;;;;8.04;50.37;101808.06;6182613;28;20241;-54
2021/04/22 04:46:47;;;;;;;18.40;3.47;;;;;;;7.94;51.07;101790.63;6181531;28;20226;-54
2021/04/22 04:50:10;;;;;;;7.63;3.93;;;;;;;7.90;51.42;101773.25;6172809;28;20249;-54
2021/04/22 04:53:31;;;;;;;13.27;4.17;;;;;;;7.89;51.86;101792.28;6183214;28;20226;-50
2021/04/22 04:56:51;;;;;;;11.03;4.13;;;;;;;7.94;52.35;101806.19;6185091;28;20241;-54
2021/04/22 05:00:15;;;;;;;16.47;4.87;;;;;;;7.88;53.12;101806.06;6185198;28;20519;-54
2021/04/22 05:03:35;;;;;;;18.63;5.00;;;;;;;8.08;52.39;101815.09;6186106;28;20226;-53
2021/04/22 05:06:56;;;;;;;14.03;5.03;;;;;;;7.93;52.73;101820.00;6159990;28;20554;-53
2021/04/22 05:10:16;;;;;;;16.40;4.63;;;;;;;7.96;52.00;101809.66;6175738;28;20934;-55
2021/04/22 05:13:37;;;;;;;10.73;4.77;;;;;;;8.07;51.41;101826.31;6189384;28;20237;-51
2021/04/22 05:16:58;;;;;;;13.43;4.20;;;;;;;8.08;50.11;101834.94;6181922;28;20309;-54
2021/04/22 05:20:19;;;;;;;17.40;3.23;;;;;;;7.98;49.83;101833.03;6187151;28;20561;-55
2021/04/22 05:23:39;;;;;;;10.43;4.03;;;;;;;8.12;48.96;101825.50;6183726;28;20261;-50
2021/04/22 05:27:00;;;;;;;12.37;5.40;;;;;;;8.28;48.75;101827.53;6187231;28;20241;-49
2021/04/22 05:30:22;;;;;;;11.83;3.97;;;;;;;8.19;48.47;101829.97;6180698;28;20234;-50
2021/04/22 05:33:43;;;;;;;13.17;3.77;;;;;;;8.37;48.18;101830.25;6183835;28;20238;-51
2021/04/22 05:37:04;;;;;;;8.93;4.07;;;;;;;8.39;48.29;101831.13;6188121;28;20225;-55
2021/04/22 05:40:24;;;;;;;13.23;4.03;;;;;;;8.25;48.34;101830.91;6181959;28;20555;-50
2021/04/22 05:43:45;;;;;;;10.27;3.67;;;;;;;8.20;48.21;101835.19;6178619;28;20618;-53
2021/04/22 05:47:06;;;;;;;11.50;3.50;;;;;;;8.55;49.44;101847.91;6183952;28;20222;-54
2021/04/22 05:50:27;;;;;;;7.90;3.80;;;;;;;9.01;49.06;101845.94;6172388;28;20518;-50
2021/04/22 05:53:48;;;;;;;13.03;3.73;;;;;;;8.87;49.64;101857.88;6183128;28;20229;-54
2021/04/22 05:57:08;;;;;;;12.07;4.07;;;;;;;8.80;48.62;101864.72;6172483;28;20246;-55
2021/04/22 06:00:30;;;;;;;13.33;3.37;;;;;;;9.10;48.49;101863.41;6181388;28;20246;-51
2021/04/22 06:03:51;;;;;;;14.33;4.30;;;;;;;9.20;48.24;101860.06;6180099;28;20436;-53
2021/04/22 06:07:12;;;;;;;10.37;4.00;;;;;;;8.76;49.53;101867.22;6174900;28;20226;-49
2021/04/22 06:10:33;;;;;;;21.60;6.57;;;;;;;8.60;48.90;101858.34;6181482;28;20257;-49
2021/04/22 06:13:54;;;;;;;15.80;5.17;;;;;;;9.16;49.31;101855.69;6184603;28;20225;-54
2021/04/22 06:17:15;;;;;;;9.97;4.80;;;;;;;9.51;47.30;101860.47;6185588;28;20241;-52
2021/04/22 06:20:36;;;;;;;14.47;4.33;;;;;;;9.56;46.81;101861.41;6190719;28;20249;-53
2021/04/22 06:23:57;;;;;;;10.77;3.97;;;;;;;9.65;46.51;101853.72;6184732;28;20256;-55
2021/04/22 06:27:18;;;;;;;18.50;4.07;;;;;;;9.27;46.04;101861.91;6182099;28;20892;-54
2021/04/22 06:30:38;;;;;;;14.83;4.10;;;;;;;9.03;46.07;101877.16;6182639;28;20233;-52
2021/04/22 06:33:59;;;;;;;12.77;3.93;;;;;;;9.01;45.57;101852.88;6175721;28;20237;-55
2021/04/22 06:37:19;;;;;;;11.03;3.20;;;;;;;9.16;44.54;101865.22;6179649;28;20619;-55
2021/04/22 06:40:41;;;;;;;12.70;3.20;;;;;;;9.13;44.74;101871.25;6189701;28;20613;-52
2021/04/22 06:44:01;;;;;;;11.20;3.67;;;;;;;9.11;45.22;101882.47;6191874;28;20226;-55
2021/04/22 06:47:22;;;;;;;15.33;4.17;;;;;;;9.31;45.26;101890.56;6186698;28;20229;-52
2021/04/22 06:50:43;;;;;;;12.63;3.97;;;;;;;9.14;45.74;101898.97;6182159;28;20226;-55
2021/04/22 06:54:04;;;;;;;12.53;5.23;;;;;;;8.76;46.92;101904.50;6176703;28;20237;-54
2021/04/22 06:57:25;;;;;;;13.10;4.93;;;;;;;9.03;46.27;101895.34;6189843;28;20611;-51
2021/04/22 07:00:46;;;;;;;11.07;3.70;;;;;;;8.99;46.13;101899.63;6185253;28;20237;-52
2021/04/22 07:04:06;;;;;;;7.07;3.10;;;;;;;9.37;45.48;101904.50;6185851;28;20307;-49
2021/04/22 07:07:27;;;;;;;8.57;3.30;;;;;;;9.19;45.68;101915.53;6186830;28;20225;-55
2021/04/22 07:10:48;;;;;;;17.37;5.33;;;;;;;9.08;45.94;101917.09;6184119;28;20231;-54
2021/04/22 07:14:09;;;;;;;14.90;4.50;;;;;;;9.06;46.29;101918.78;6179795;28;20536;-56
2021/04/22 07:17:30;;;;;;;10.70;4.07;;;;;;;9.25;45.83;101926.00;6185159;28;20226;-51
2021/04/22 07:20:50;;;;;;;9.40;3.67;;;;;;;9.38;44.87;101926.16;6188781;28;20242;-56
2021/04/22 07:24:11;;;;;;;9.00;3.60;;;;;;;9.63;44.55;101927.34;6181578;28;20692;-54
2021/04/22 07:27:31;;;;;;;13.57;4.47;;;;;;;9.71;44.49;101925.72;6180966;28;20316;-55
2021/04/22 07:30:54;;;;;;;15.77;5.03;;;;;;;9.48;45.34;101921.94;6195773;28;20233;-54
2021/04/22 07:34:15;;;;;;;20.17;5.27;;;;;;;9.69;44.21;101918.75;6189483;28;20312;-54
2021/04/22 07:37:35;;;;;;;19.50;5.33;;;;;;;9.97;43.06;101931.22;6189132;28;20337;-55
2021/04/22 07:40:56;;;;;;;10.77;3.60;;;;;;;10.20;43.00;101920.22;6180598;28;20269;-54
2021/04/22 07:44:16;;;;;;;13.47;4.20;;;;;;;10.56;43.04;101921.44;6184429;28;20241;-54
2021/04/22 07:47:37;;;;;;;13.83;5.10;;;;;;;10.11;44.13;101938.31;6191598;28;20220;-55
2021/04/22 07:50:59;;;;;;;16.03;3.77;;;;;;;9.77;45.30;101940.53;6189517;28;20229;-51
2021/04/22 07:54:19;;;;;;;15.17;4.40;;;;;;;9.88;44.91;101938.94;6182119;28;20226;-52
2021/04/22 07:57:40;;;;;;;13.83;4.70;;;;;;;9.86;45.64;101945.84;6187592;28;20226;-54
2021/04/22 08:01:01;;;;;;;11.10;3.80;;;;;;;9.63;45.72;101938.66;6176481;28;20612;-54
2021/04/22 08:04:23;;;;;;;19.13;4.07;;;;;;;10.22;45.22;101955.81;6175217;28;20234;-50
2021/04/22 08:07:44;;;;;;;16.33;6.30;;;;;;;9.99;45.00;101960.75;6177605;28;20231;-51
2021/04/22 08:11:04;;;;;;;11.07;3.87;;;;;;;10.96;42.44;101958.25;6187851;28;20330;-50
2021/04/22 08:14:25;;;;;;;12.80;4.07;;;;;;;10.90;40.86;101971.22;6170887;28;20320;-47
2021/04/22 08:17:46;;;;;;;12.73;3.90;;;;;;;10.50;41.99;101963.91;6179563;28;20230;-54
2021/04/22 08:21:08;;;;;;;13.30;3.97;;;;;;;10.25;41.83;101965.38;6187285;28;20237;-51
2021/04/22 08:24:28;;;;;;;7.43;3.37;;;;;;;10.25;42.26;101965.38;6176693;28;20329;-55
2021/04/22 08:27:51;;;;;;;12.87;5.07;;;;;;;9.46;44.92;101971.38;6187073;28;20236;-53
2021/04/22 08:31:20;;;;;;;12.37;4.73;;;;;;;10.11;45.06;101986.03;6187772;28;20237;-56
2021/04/22 08:34:40;;;;;;;11.57;4.23;;;;;;;10.31;44.06;101973.28;6171982;28;20607;-53
2021/04/22 08:38:03;;;;;;;18.20;5.37;;;;;;;10.52;43.25;101977.81;6183383;28;20242;-54
2021/04/22 08:41:23;;;;;;;15.70;4.73;;;;;;;10.63;43.06;101975.34;6188062;28;20222;-54
2021/04/22 08:44:46;;;;;;;11.85;3.95;;;;;;;10.95;45.60;101979.94;6187674;28;20716;-64
2021/04/22 08:48:08;;;;;;;9.87;4.67;;;;;;;10.91;41.36;101986.00;6182462;28;20233;-53
2021/04/22 08:51:29;;;;;;;13.50;4.17;;;;;;;10.79;40.81;101973.72;6177795;28;20238;-53
2021/04/22 08:54:51;;;;;;;13.27;5.43;;;;;;;11.27;40.37;101981.94;6185540;28;20238;-53
2021/04/22 08:58:12;;;;;;;9.07;4.43;;;;;;;10.59;40.73;101982.25;6180537;28;20237;-55
2021/04/22 09:01:33;;;;;;;7.87;4.30;;;;;;;10.82;39.38;101979.84;6184207;28;20229;-52
2021/04/22 09:04:54;;;;;;;12.07;4.53;;;;;;;11.43;39.42;101991.56;6166381;28;20229;-49
2021/04/22 09:08:15;;;;;;;12.87;4.87;;;;;;;10.87;39.71;101989.44;6178523;28;20340;-52
2021/04/22 09:11:44;;;;;;;13.30;5.07;;;;;;;10.92;39.50;101990.34;6178370;28;20238;-51
2021/04/22 09:15:08;;;;;;;12.90;4.80;;;;;;;10.68;38.94;101984.03;6184715;28;20229;-50
2021/04/22 09:18:29;;;;;;;10.27;4.10;;;;;;;10.51;38.58;101988.25;6177808;28;20218;-52
2021/04/22 09:21:53;;;;;;;11.60;5.20;;;;;;;11.55;37.58;101986.41;6187201;28;20238;-53
2021/04/22 09:25:16;;;;;;;9.33;5.17;;;;;;;11.06;37.69;101999.16;6195617;28;20234;-51
2021/04/22 09:28:39;;;;;;;11.03;4.53;;;;;;;11.26;37.94;102001.03;6188108;28;20229;-57
2021/04/22 09:32:07;;;;;;;11.07;5.30;;;;;;;11.27;39.70;102000.19;6188719;28;20226;-52
2021/04/22 09:35:28;;;;;;;13.63;4.47;;;;;;;11.36;39.14;101995.00;6185466;28;20233;-52
2021/04/22 09:38:55;;;;;;;12.93;4.90;;;;;;;11.01;41.38;101987.78;6186750;28;20320;-53
2021/04/22 09:42:18;;;;;;;8.00;5.70;;;;;;;11.45;39.95;102002.88;6188993;28;20265;-51
2021/04/22 09:45:43;;;;;;;10.47;3.93;;;;;;;11.57;39.24;101987.34;6187216;28;20579;-53
2021/04/22 09:49:09;;;;;;;12.23;4.50;;;;;;;11.81;36.65;101999.63;6187693;28;20616;-50
2021/04/22 09:52:31;;;;;;;12.57;4.73;;;;;;;11.41;36.97;101993.31;6186873;28;20345;-54
2021/04/22 09:55:53;;;;;;;12.67;4.30;;;;;;;11.95;37.51;101988.41;6184510;28;20773;-55
2021/04/22 09:59:17;;;;;;;11.73;4.53;;;;;;;11.77;37.67;101989.16;6187821;28;20249;-57
2021/04/22 10:02:43;;;;;;;9.87;4.00;;;;;;;11.79;39.05;101997.88;6186522;28;20249;-55
2021/04/22 10:06:05;;;;;;;8.20;3.80;;;;;;;11.82;38.71;101998.75;6180444;28;20242;-51
2021/04/22 10:09:36;;;;;;;9.27;4.97;;;;;;;12.33;37.53;102001.59;6179889;28;20225;-53
2021/04/22 10:13:00;;;;;;;12.83;4.77;;;;;;;12.08;37.07;101999.75;6116748;28;20241;-52
2021/04/22 10:16:31;;;;;;;14.13;4.47;;;;;;;11.94;36.97;102005.81;6161061;28;20329;-54
2021/04/22 10:20:01;;;;;;;11.50;4.30;;;;;;;11.81;37.85;102006.59;6168724;28;20246;-53
2021/04/22 10:23:27;;;;;;;6.97;3.60;;;;;;;12.12;36.83;102015.44;6162917;28;20624;-51
2021/04/22 10:26:58;;;;;;;8.20;3.90;;;;;;;12.33;36.04;102006.81;6162571;28;20250;-57
2021/04/22 10:30:21;;;;;;;13.30;5.33;;;;;;;12.39;35.99;101987.66;6167258;28;20230;-52
2021/04/22 10:33:42;;;;;;;10.10;4.43;;;;;;;12.29;37.23;102007.66;6166830;28;20234;-55
2021/04/22 10:37:04;;;;;;;9.83;4.07;;;;;;;11.85;38.21;102012.69;6160629;28;20639;-53
2021/04/22 10:40:27;;;;;;;6.40;3.90;;;;;;;11.87;38.40;102016.19;6161361;28;20239;-52
2021/04/22 10:43:48;;;;;;;14.30;5.20;;;;;;;11.71;39.08;102020.44;6159808;28;20235;-55
2021/04/22 10:47:10;;;;;;;9.87;4.30;;;;;;;11.86;38.54;102019.63;6155610;28;20275;-49
2021/04/22 10:50:34;;;;;;;10.07;6.20;;;;;;;13.26;36.26;102018.22;6158864;28;20541;-51
2021/04/22 10:53:56;;;;;;;10.57;5.83;;;;;;;13.40;34.98;102010.38;6159422;28;20318;-53
2021/04/22 10:57:19;;;;;;;8.73;4.67;;;;;;;12.86;35.38;102009.50;6159414;28;20790;-49
2021/04/22 11:00:46;;;;;;;8.00;3.80;;;;;;;12.52;37.74;102012.94;6159326;28;20238;-54
2021/04/22 11:04:09;;;;;;;9.43;4.23;;;;;;;13.21;37.55;102019.94;6162640;28;20234;-49
2021/04/22 11:07:29;;;;;;;10.57;3.80;;;;;;;12.71;38.29;102006.00;6153656;28;20246;-53
2021/04/22 11:10:55;;;;;;;10.13;4.63;;;;;;;13.36;36.51;102019.09;6164060;28;20581;-55
2021/04/22 11:14:17;;;;;;;7.87;3.77;;;;;;;12.60;37.54;102006.00;6159514;28;20235;-52
2021/04/22 11:17:39;;;;;;;8.87;4.10;;;;;;;12.37;38.54;102008.56;6151840;28;20242;-55
2021/04/22 11:21:00;;;;;;;8.90;4.00;;;;;;;11.66;40.45;102024.75;6155878;28;20317;-54
2021/04/22 11:24:29;;;;;;;8.60;3.40;;;;;;;11.74;40.42;102023.06;6156659;28;20581;-49
2021/04/22 11:27:53;;;;;;;8.93;4.13;;;;;;;12.00;39.63;102015.41;6162846;28;20625;-49
2021/04/22 11:31:16;;;;;;;7.50;4.27;;;;;;;12.07;39.63;102027.59;6156084;28;20504;-52
2021/04/22 11:34:38;;;;;;;8.60;4.07;;;;;;;11.94;39.57;102038.84;6161136;28;20238;-49
2021/04/22 11:38:05;;;;;;;7.03;3.80;;;;;;;11.17;42.36;102044.44;6162657;28;20238;-54
2021/04/22 11:41:29;;;;;;;8.03;3.70;;;;;;;10.89;43.87;102058.94;6156755;28;20277;-53
2021/04/22 11:44:52;;;;;;;9.90;4.07;;;;;;;10.72;45.09;102055.28;6156054;28;20234;-52
2021/04/22 11:48:12;;;;;;;10.20;4.20;;;;;;;10.99;44.18;102063.41;6165498;28;20490;-53
2021/04/22 11:51:35;;;;;;;6.47;3.70;;;;;;;10.73;45.80;102075.31;6161083;28;20234;-55
2021/04/22 11:54:56;;;;;;;16.37;4.67;;;;;;;11.01;45.18;102073.81;6154575;28;20270;-56
2021/04/22 11:58:19;;;;;;;9.53;3.87;;;;;;;11.36;44.97;102075.84;6157168;28;20267;-56
2021/04/22 12:01:50;;;;;;;12.40;4.57;;;;;;;11.31;45.31;102067.13;6158293;28;20513;-52
2021/04/22 12:05:15;;;;;;;12.43;5.33;;;;;;;10.67;45.95;102091.75;6162722;28;20234;-54
2021/04/22 12:08:38;;;;;;;7.23;3.47;;;;;;;12.97;40.09;102087.06;6168376;28;20227;-51
2021/04/22 12:12:07;;;;;;;8.43;4.63;;;;;;;12.33;41.21;102089.50;6161150;28;20234;-56
2021/04/22 12:15:29;;;;;;;14.73;5.47;;;;;;;11.95;41.07;102083.25;6171682;28;20222;-54
2021/04/22 12:18:53;;;;;;;11.40;5.40;;;;;;;11.60;42.19;102101.25;6163181;28;20317;-52
2021/04/22 12:22:25;;;;;;;13.67;4.50;;;;;;;11.12;43.77;102102.59;6154051;28;20231;-52
2021/04/22 12:25:45;;;;;;;8.33;4.40;;;;;;;16.56;33.29;102105.97;6153803;28;20560;-53
2021/04/22 12:29:08;;;;;;;11.43;4.43;;;;;;;16.22;34.09;102085.34;6158856;28;20332;-50
2021/04/22 12:32:29;;;;;;;7.17;4.13;;;;;;;13.73;37.71;102105.41;6144204;28;20234;-56
2021/04/22 12:35:55;;;;;;;11.90;5.47;;;;;;;12.13;41.01;102097.25;6154469;28;20329;-53
2021/04/22 12:39:24;;;;;;;9.97;5.83;;;;;;;13.25;39.47;102112.38;6160586;28;20348;-54
2021/04/22 12:42:45;;;;;;;12.17;5.10;;;;;;;14.50;36.92;102108.66;6155780;28;20242;-49
2021/04/22 12:46:09;;;;;;;8.37;5.47;;;;;;;13.05;39.56;102107.13;6150883;28;20234;-54
2021/04/22 12:49:29;;;;;;;11.60;4.73;;;;;;;12.48;40.84;102114.81;6154024;28;20231;-50
2021/04/22 12:53:00;;;;;;;9.30;4.63;;;;;;;11.50;43.15;102115.97;6162401;28;20230;-56
2021/04/22 12:56:21;;;;;;;9.77;4.03;;;;;;;11.66;42.80;102116.09;6161584;28;20230;-53
2021/04/22 12:59:46;;;;;;;14.37;4.57;;;;;;;15.77;34.60;102108.63;6165023;28;20254;-54
2021/04/22 13:03:17;;;;;;;8.53;4.77;;;;;;;16.23;33.27;102102.88;6155575;28;20235;-54
2021/04/22 13:06:41;;;;;;;9.40;3.70;;;;;;;16.93;31.41;102106.31;6159541;28;20532;-57
2021/04/22 13:10:09;;;;;;;5.97;4.27;;;;;;;16.61;30.44;102098.84;6157236;28;20247;-55
2021/04/22 13:13:33;;;;;;;5.03;3.97;;;;;;;15.18;33.80;102107.38;6164650;28;20234;-52
2021/04/22 13:16:54;;;;;;;7.20;3.60;;;;;;;15.35;32.87;102097.59;6151796;28;20271;-52
2021/04/22 13:20:19;;;;;;;6.03;4.10;;;;;;;13.17;37.59;102108.00;6160992;28;20598;-52
2021/04/22 13:23:40;;;;;;;8.13;3.67;;;;;;;12.61;38.88;102119.22;6167018;28;20230;-52
2021/04/22 13:27:05;;;;;;;7.70;4.70;;;;;;;13.04;38.86;102101.00;6154249;28;20610;-55
2021/04/22 13:30:32;;;;;;;7.80;4.27;;;;;;;12.58;39.35;102111.38;6156905;28;20226;-54
2021/04/22 13:34:08;;;;;;;5.33;4.20;;;;;;;12.02;40.80;102110.28;6155440;28;20238;-53
2021/04/22 13:37:29;;;;;;;9.33;4.70;;;;;;;11.77;42.15;102123.13;6156823;28;20333;-54
2021/04/22 13:40:50;;;;;;;7.37;4.57;;;;;;;11.61;43.31;102113.44;6158455;28;20227;-49
2021/04/22 13:44:13;;;;;;;11.70;4.77;;;;;;;13.08;40.48;102117.59;6164104;28;20660;-55
2021/04/22 13:47:33;;;;;;;9.80;4.40;;;;;;;12.12;42.59;102119.91;6160045;28;20305;-54
2021/04/22 13:50:54;;;;;;;11.03;4.63;;;;;;;11.56;44.14;102116.03;6155471;28;20230;-50
2021/04/22 13:54:17;;;;;;;10.77;4.30;;;;;;;12.09;43.02;102126.84;6158712;28;20250;-49
2021/04/22 13:57:43;;;;;;;11.03;4.53;;;;;;;13.15;40.01;102114.97;6153069;28;20234;-54
2021/04/22 14:01:05;;;;;;;10.93;4.37;;;;;;;15.27;36.64;102116.03;6160666;28;20234;-54
2021/04/22 14:04:26;;;;;;;10.13;4.33;;;;;;;15.44;35.65;102123.78;6149995;28;20526;-51
2021/04/22 14:07:50;;;;;;;9.37;3.80;;;;;;;13.59;38.80;102122.00;6154759;28;20628;-52
2021/04/22 14:11:12;;;;;;;13.73;4.60;;;;;;;12.73;40.81;102121.00;6169034;28;20313;-52
2021/04/22 14:14:33;;;;;;;6.47;4.50;;;;;;;12.58;40.58;102127.03;6160915;28;20667;-53
2021/04/22 14:17:54;;;;;;;7.70;3.77;;;;;;;12.01;42.43;102125.03;6169141;28;20222;-53
2021/04/22 14:21:15;;;;;;;10.47;5.13;;;;;;;12.10;42.32;102121.63;6163939;28;20242;-53
2021/04/22 14:24:36;;;;;;;8.37;4.53;;;;;;;12.08;42.78;102136.41;6157633;28;20234;-48
2021/04/22 14:27:56;;;;;;;7.40;3.90;;;;;;;12.43;42.43;102130.50;6149759;28;20226;-54
2021/04/22 14:31:17;;;;;;;10.90;4.60;;;;;;;11.80;43.05;102130.09;6167051;28;20234;-51
2021/04/22 14:34:38;;;;;;;8.50;3.67;;;;;;;11.47;43.24;102126.38;6165839;28;20242;-54
2021/04/22 14:37:58;;;;;;;5.60;3.33;;;;;;;12.53;40.72;102118.34;6162119;28;20247;-55
2021/04/22 14:41:19;;;;;;;9.57;4.13;;;;;;;13.09;38.52;102125.44;6170255;28;20596;-55
2021/04/22 14:44:39;;;;;;;9.60;4.20;;;;;;;14.12;36.63;102130.63;6159493;28;20556;-54
2021/04/22 14:48:00;;;;;;;5.83;4.13;;;;;;;13.79;37.13;102126.34;6156612;28;20329;-52
2021/04/22 14:51:22;;;;;;;10.40;4.70;;;;;;;14.21;36.38;102124.50;6161421;28;20532;-54
2021/04/22 14:54:42;;;;;;;9.17;3.90;;;;;;;13.38;36.97;102127.25;6152708;28;20238;-53
2021/04/22 14:58:03;;;;;;;6.17;3.60;;;;;;;12.77;38.74;102128.84;6155656;28;20238;-55
2021/04/22 15:01:23;;;;;;;6.67;3.57;;;;;;;12.28;39.48;102144.34;6159757;28;20342;-54
2021/04/22 15:04:44;;;;;;;12.47;4.50;;;;;;;12.69;39.12;102135.78;6157287;28;20317;-51
2021/04/22 15:08:10;;;;;;;9.63;4.70;;;;;;;12.25;40.33;102146.94;6158151;28;20258;-51
2021/04/22 15:11:31;;;;;;;8.20;3.77;;;;;;;12.19;41.06;102150.41;6165919;28;20230;-50
2021/04/22 15:14:52;;;;;;;7.67;4.40;;;;;;;11.86;42.45;102156.25;6164885;28;20231;-53
2021/04/22 15:18:12;;;;;;;6.17;3.50;;;;;;;11.89;42.10;102156.31;6163747;28;20345;-50
2021/04/22 15:21:33;;;;;;;6.47;4.00;;;;;;;11.58;42.14;102158.66;6157770;28;20239;-53
2021/04/22 15:24:54;;;;;;;7.47;4.00;;;;;;;11.30;42.88;102154.03;6154789;28;20223;-56
2021/04/22 15:28:15;;;;;;;8.27;3.80;;;;;;;11.22;43.12;102161.78;6164862;28;20246;-52
2021/04/22 15:31:35;;;;;;;9.80;4.27;;;;;;;11.19;42.25;102164.41;6164360;28;20242;-56
2021/04/22 15:34:55;;;;;;;8.13;4.57;;;;;;;11.60;41.88;102154.31;6166196;28;20629;-54
2021/04/22 15:38:16;;;;;;;6.57;4.13;;;;;;;12.46;40.07;102158.38;6163518;28;20234;-55